createdAt,value
2023-01-08T00:02:01.135Z,-0.32
2023-01-08T00:04:48.777Z,-0.31
2023-01-08T00:07:36.430Z,-0.53
2023-01-08T00:10:24.156Z,-0.30
2023-01-08T00:13:11.855Z,-0.34
2023-01-08T00:16:07.036Z,-0.38
2023-01-08T00:18:54.764Z,-0.41
2023-01-08T00:21:42.534Z,-0.47
2023-01-08T00:24:30.240Z,-0.58
2023-01-08T00:27:20.206Z,-0.65
2023-01-08T00:30:08.429Z,-0.61
2023-01-08T00:32:56.084Z,-0.55
2023-01-08T00:35:43.842Z,-0.67
2023-01-08T00:38:31.484Z,-0.76
2023-01-08T00:41:19.228Z,-0.78
2023-01-08T00:44:07.170Z,-0.76
2023-01-08T00:46:54.799Z,-0.79
2023-01-08T00:49:42.600Z,-1.01
2023-01-08T00:52:30.350Z,-0.82
2023-01-08T00:55:18.471Z,-0.91
2023-01-08T00:58:06.176Z,-0.75
2023-01-08T01:00:53.953Z,-0.64
2023-01-08T01:03:42.715Z,-0.68
2023-01-08T01:06:33.669Z,-0.60
2023-01-08T01:09:21.436Z,-0.68
2023-01-08T01:12:09.065Z,-0.74
2023-01-08T01:14:56.722Z,-0.72
2023-01-08T01:17:46.413Z,-0.73
2023-01-08T01:20:34.094Z,-0.68
2023-01-08T01:23:21.866Z,-0.50
2023-01-08T01:26:20.709Z,-0.37
2023-01-08T01:29:08.475Z,-0.21
2023-01-08T01:31:56.109Z,-0.23
2023-01-08T01:34:43.938Z,-0.29
2023-01-08T01:37:34.723Z,-0.38
2023-01-08T01:40:22.525Z,-0.75
2023-01-08T01:43:14.921Z,-0.78
2023-01-08T01:46:04.550Z,-0.69
2023-01-08T01:48:56.133Z,-0.86
2023-01-08T01:51:51.681Z,-0.74
2023-01-08T01:54:39.830Z,-0.87
2023-01-08T01:57:29.393Z,-0.84
2023-01-08T02:00:19.353Z,-1.03
2023-01-08T02:03:08.688Z,-1.02
2023-01-08T02:06:05.511Z,-1.10
2023-01-08T02:08:56.061Z,-1.16
2023-01-08T02:12:14.000Z,-1.27
2023-01-08T02:15:16.549Z,-1.21
2023-01-08T02:18:10.134Z,-1.32
2023-01-08T02:21:03.835Z,-1.22
2023-01-08T02:24:17.772Z,-1.23
2023-01-08T02:27:08.635Z,-1.28
2023-01-08T02:29:57.763Z,-1.51
2023-01-08T02:32:45.575Z,-1.35
2023-01-08T02:35:45.056Z,-1.35
2023-01-08T02:38:33.148Z,-1.38
2023-01-08T02:41:28.876Z,-1.40
2023-01-08T02:44:33.117Z,-1.47
2023-01-08T02:47:26.764Z,-1.43
2023-01-08T02:50:26.266Z,-1.82
2023-01-08T02:53:29.795Z,-1.68
2023-01-08T02:56:22.580Z,-1.47
2023-01-08T02:59:13.315Z,-1.51
2023-01-08T03:02:02.975Z,-1.58
2023-01-08T03:04:58.326Z,-1.60
2023-01-08T03:07:46.057Z,-1.91
2023-01-08T03:10:37.666Z,-1.42
2023-01-08T03:13:32.967Z,-1.80
2023-01-08T03:16:42.005Z,-1.66
2023-01-08T03:19:40.557Z,-1.70
2023-01-08T03:22:32.317Z,-1.76
2023-01-08T03:25:22.677Z,-1.73
2023-01-08T03:28:24.682Z,-1.69
2023-01-08T03:31:16.608Z,-1.66
2023-01-08T03:34:05.700Z,-1.64
2023-01-08T03:36:57.821Z,-1.80
2023-01-08T03:39:54.483Z,-1.93
2023-01-08T03:42:42.361Z,-1.78
2023-01-08T03:45:32.164Z,-1.87
2023-01-08T03:48:21.800Z,-1.92
2023-01-08T03:51:10.774Z,-2.04
2023-01-08T03:53:59.958Z,-2.04
2023-01-08T03:56:47.720Z,-1.94
2023-01-08T03:59:35.431Z,-2.03
2023-01-08T04:02:23.272Z,-2.19
2023-01-08T04:05:11.439Z,-2.14
2023-01-08T04:07:59.334Z,-2.25
2023-01-08T04:10:47.080Z,-2.39
2023-01-08T04:13:34.955Z,-2.25
2023-01-08T04:16:23.568Z,-2.31
2023-01-08T04:19:15.235Z,-2.39
2023-01-08T04:22:02.906Z,-2.29
2023-01-08T04:24:50.657Z,-2.33
2023-01-08T04:27:38.389Z,-2.34
2023-01-08T04:30:26.163Z,-2.33
2023-01-08T04:33:13.971Z,-2.41
2023-01-08T04:36:01.947Z,-2.45
2023-01-08T04:38:49.689Z,-2.38
2023-01-08T04:41:37.401Z,-2.46
2023-01-08T04:44:25.189Z,-2.53
2023-01-08T04:47:12.887Z,-2.61
2023-01-08T04:50:00.551Z,-2.54
2023-01-08T04:52:48.254Z,-2.52
2023-01-08T04:55:37.087Z,-2.51
2023-01-08T04:58:25.541Z,-2.69
2023-01-08T05:01:19.186Z,-2.71
2023-01-08T05:04:07.041Z,-2.92
2023-01-08T05:06:54.687Z,-2.64
2023-01-08T05:09:43.384Z,-2.52
2023-01-08T05:12:31.040Z,-2.61
2023-01-08T05:15:18.776Z,-2.63
2023-01-08T05:18:06.955Z,-2.77
2023-01-08T05:20:54.712Z,-2.60
2023-01-08T05:23:49.398Z,-2.85
2023-01-08T05:26:37.046Z,-2.66
2023-01-08T05:29:24.778Z,-2.55
2023-01-08T05:32:17.636Z,-2.50
2023-01-08T05:35:06.119Z,-2.56
2023-01-08T05:37:53.838Z,-2.33
2023-01-08T05:40:41.549Z,-2.45
2023-01-08T05:43:29.562Z,-2.32
2023-01-08T05:46:17.407Z,-2.08
2023-01-08T05:49:05.106Z,-2.17
2023-01-08T05:51:52.838Z,-2.25
2023-01-08T05:54:40.465Z,-2.34
2023-01-08T05:57:28.263Z,-2.27
2023-01-08T06:00:16.504Z,-2.36
2023-01-08T06:03:04.757Z,-2.06
2023-01-08T06:05:52.524Z,-2.15
2023-01-08T06:08:40.273Z,-2.02
2023-01-08T06:11:27.870Z,-2.18
2023-01-08T06:14:16.323Z,-1.94
2023-01-08T06:17:04.083Z,-1.88
2023-01-08T06:19:51.790Z,-1.99
2023-01-08T06:22:39.413Z,-1.64
2023-01-08T06:25:27.196Z,-1.65
2023-01-08T06:28:21.213Z,-1.60
2023-01-08T06:31:09.467Z,-1.58
2023-01-08T06:34:00.710Z,-1.34
2023-01-08T06:36:53.243Z,-1.17
2023-01-08T06:39:43.090Z,-1.79
2023-01-08T06:42:30.751Z,-1.15
2023-01-08T06:45:18.421Z,-1.40
2023-01-08T06:48:07.509Z,-1.25
2023-01-08T06:50:55.205Z,-1.07
2023-01-08T06:53:44.924Z,-1.15
2023-01-08T06:56:37.740Z,-1.15
2023-01-08T06:59:35.574Z,-1.29
2023-01-08T07:02:25.506Z,-1.20
2023-01-08T07:05:13.414Z,-1.04
2023-01-08T07:08:01.130Z,-1.16
2023-01-08T07:10:49.062Z,-0.99
2023-01-08T07:13:37.689Z,-0.95
2023-01-08T07:16:25.534Z,-0.86
2023-01-08T07:19:13.887Z,-0.71
2023-01-08T07:22:01.948Z,-0.75
2023-01-08T07:25:02.814Z,-0.76
2023-01-08T07:27:52.255Z,-0.91
2023-01-08T07:30:40.841Z,-0.86
2023-01-08T07:33:28.520Z,-0.71
2023-01-08T07:36:16.285Z,-0.61
2023-01-08T07:39:04.211Z,-0.55
2023-01-08T07:41:52.078Z,-0.76
2023-01-08T07:44:39.851Z,-0.48
2023-01-08T07:47:27.590Z,-1.09
2023-01-08T07:50:15.428Z,-0.47
2023-01-08T07:53:09.001Z,-0.47
2023-01-08T07:56:07.308Z,-0.44
2023-01-08T07:58:55.162Z,-0.69
2023-01-08T08:01:42.991Z,-0.51
2023-01-08T08:04:31.937Z,-0.37
2023-01-08T08:07:30.181Z,-0.27
2023-01-08T08:10:30.797Z,-0.37
2023-01-08T08:13:22.500Z,-0.69
2023-01-08T08:16:14.306Z,-0.69
2023-01-08T08:19:09.513Z,-0.72
2023-01-08T08:21:58.148Z,-0.69
2023-01-08T08:24:45.924Z,-0.16
2023-01-08T08:27:33.595Z,-0.11
2023-01-08T08:30:21.624Z,0.16
2023-01-08T08:33:10.216Z,0.20
2023-01-08T08:35:58.039Z,-0.02
2023-01-08T08:38:45.586Z,0.07
2023-01-08T08:41:33.293Z,0.17
2023-01-08T08:44:21.117Z,0.40
2023-01-08T08:47:11.623Z,0.21
2023-01-08T08:49:59.570Z,0.29
2023-01-08T08:52:49.149Z,0.42
2023-01-08T08:55:36.904Z,0.37
2023-01-08T08:58:24.977Z,0.62
2023-01-08T09:01:12.658Z,0.50
2023-01-08T09:04:00.391Z,0.23
2023-01-08T09:06:48.125Z,0.44
2023-01-08T09:09:35.720Z,0.69
2023-01-08T09:12:23.361Z,0.57
2023-01-08T09:15:11.812Z,0.55
2023-01-08T09:17:59.688Z,0.81
2023-01-08T09:20:47.484Z,0.76
2023-01-08T09:23:35.740Z,0.89
2023-01-08T09:26:23.604Z,0.73
2023-01-08T09:29:11.400Z,0.90
2023-01-08T09:32:00.812Z,0.79
2023-01-08T09:34:48.589Z,1.17
2023-01-08T09:37:36.392Z,1.03
2023-01-08T09:40:32.639Z,1.26
2023-01-08T09:43:22.712Z,1.43
2023-01-08T09:46:12.314Z,1.51
2023-01-08T09:49:04.745Z,1.50
2023-01-08T09:51:53.026Z,1.48
2023-01-08T09:54:41.647Z,1.43
2023-01-08T09:57:29.873Z,1.53
2023-01-08T10:00:22.770Z,1.46
2023-01-08T10:03:12.649Z,1.76
2023-01-08T10:06:00.320Z,1.71
2023-01-08T10:08:48.095Z,1.57
2023-01-08T10:11:47.947Z,1.64
2023-01-08T10:14:38.674Z,1.51
2023-01-08T10:17:31.876Z,1.45
2023-01-08T10:20:22.327Z,1.37
2023-01-08T10:23:14.363Z,1.22
2023-01-08T10:26:03.298Z,1.38
2023-01-08T10:28:50.951Z,1.16
2023-01-08T10:31:53.443Z,1.12
2023-01-08T10:34:53.244Z,1.15
2023-01-08T10:37:43.031Z,1.48
2023-01-08T10:40:38.740Z,1.59
2023-01-08T10:43:44.213Z,1.62
2023-01-08T10:46:37.496Z,1.27
2023-01-08T10:49:42.250Z,1.69
2023-01-08T10:52:36.596Z,1.49
2023-01-08T10:55:31.849Z,1.58
2023-01-08T10:58:20.667Z,1.42
2023-01-08T11:01:25.883Z,1.68
2023-01-08T11:04:36.252Z,1.66
2023-01-08T11:07:28.282Z,1.53
2023-01-08T11:10:26.884Z,1.88
2023-01-08T11:13:19.976Z,1.51
2023-01-08T11:16:12.979Z,1.34
2023-01-08T11:19:00.924Z,1.47
2023-01-08T11:21:59.143Z,1.47
2023-01-08T11:24:47.926Z,1.66
2023-01-08T11:27:38.503Z,1.45
2023-01-08T11:30:28.633Z,1.47
2023-01-08T11:33:24.358Z,1.60
2023-01-08T11:36:29.956Z,1.39
2023-01-08T11:39:19.597Z,1.62
2023-01-08T11:42:35.312Z,1.46
2023-01-08T11:45:40.358Z,1.66
2023-01-08T11:48:50.048Z,1.82
2023-01-08T11:51:53.112Z,1.52
2023-01-08T11:55:11.363Z,1.68
2023-01-08T11:58:11.218Z,1.64
2023-01-08T12:01:50.297Z,1.61
2023-01-08T12:04:48.742Z,1.45
2023-01-08T12:07:51.912Z,1.56
2023-01-08T12:11:17.951Z,1.82
2023-01-08T12:14:21.854Z,1.85
2023-01-08T12:17:46.299Z,2.04
2023-01-08T12:20:44.941Z,2.12
2023-01-08T12:23:55.951Z,2.00
2023-01-08T12:27:13.901Z,1.80
2023-01-08T12:30:26.170Z,1.97
2023-01-08T12:33:24.195Z,1.89
2023-01-08T12:36:27.344Z,2.12
2023-01-08T12:39:47.403Z,2.11
2023-01-08T12:43:01.176Z,2.12
2023-01-08T12:46:29.035Z,1.27
2023-01-08T12:54:39.659Z,1.83
2023-01-08T12:58:17.871Z,1.62
2023-01-08T13:01:33.141Z,1.78
2023-01-08T13:04:58.038Z,2.12
2023-01-08T13:08:35.396Z,2.09
2023-01-08T13:11:43.535Z,1.57
2023-01-08T13:14:43.268Z,2.11
2023-01-08T13:17:36.356Z,1.87
2023-01-08T13:20:31.902Z,1.92
2023-01-08T13:28:04.088Z,1.74
2023-01-08T13:32:09.558Z,1.93
2023-01-08T13:35:21.568Z,2.07
2023-01-08T13:38:45.901Z,1.90
2023-01-08T13:54:06.857Z,2.09
2023-01-08T13:57:54.664Z,2.13
2023-01-08T14:01:29.162Z,2.17
2023-01-08T14:13:10.522Z,1.37
2023-01-08T14:17:30.139Z,2.05
2023-01-08T14:21:20.043Z,1.99
2023-01-08T14:25:13.691Z,1.22
2023-01-08T14:32:21.246Z,1.59
2023-01-08T14:35:18.251Z,1.38
2023-01-08T14:38:06.044Z,1.47
2023-01-08T14:41:13.040Z,1.66
2023-01-08T14:44:09.409Z,1.50
2023-01-08T14:46:58.285Z,1.22
2023-01-08T14:49:52.303Z,1.52
2023-01-08T14:52:41.267Z,1.26
2023-01-08T14:55:37.709Z,1.41
2023-01-08T14:58:37.770Z,1.27
2023-01-08T15:01:29.323Z,1.02
2023-01-08T15:04:19.981Z,1.22
2023-01-08T15:07:30.159Z,1.40
2023-01-08T15:10:44.544Z,1.29
2023-01-08T15:13:36.504Z,1.31
2023-01-08T15:16:43.166Z,1.34
2023-01-08T15:19:37.446Z,1.35
2023-01-08T15:22:27.988Z,0.92
2023-01-08T15:25:24.339Z,0.92
2023-01-08T15:28:16.029Z,0.91
2023-01-08T15:31:08.091Z,0.92
2023-01-08T15:33:57.436Z,0.97
2023-01-08T15:36:47.679Z,0.95
2023-01-08T15:39:35.650Z,0.99
2023-01-08T15:42:47.257Z,0.98
2023-01-08T15:45:35.364Z,1.12
2023-01-08T15:48:23.394Z,1.12
2023-01-08T15:51:11.767Z,1.16
2023-01-08T15:54:00.539Z,0.72
2023-01-08T15:56:48.664Z,0.95
2023-01-08T15:59:38.125Z,0.94
2023-01-08T16:02:26.946Z,0.63
2023-01-08T16:05:22.311Z,0.11
2023-01-08T16:08:13.188Z,0.94
2023-01-08T16:11:02.752Z,1.04
2023-01-08T16:13:50.647Z,1.06
2023-01-08T16:16:41.193Z,0.99
2023-01-08T16:19:31.003Z,1.02
2023-01-08T16:22:18.748Z,0.53
2023-01-08T16:25:07.545Z,1.00
2023-01-08T16:27:55.440Z,0.96
2023-01-08T16:30:44.514Z,0.94
2023-01-08T16:33:35.612Z,0.87
2023-01-08T16:36:24.054Z,0.92
2023-01-08T16:39:12.044Z,0.76
2023-01-08T16:41:59.847Z,0.79
2023-01-08T16:44:48.992Z,0.70
2023-01-08T16:47:39.994Z,0.72
2023-01-08T16:50:27.765Z,0.85
2023-01-08T16:53:17.872Z,0.87
2023-01-08T16:56:06.149Z,0.87
2023-01-08T16:58:53.989Z,0.91
2023-01-08T17:01:45.544Z,0.91
2023-01-08T17:04:39.413Z,0.92
2023-01-08T17:07:27.268Z,0.66
2023-01-08T17:10:20.650Z,0.38
2023-01-08T17:13:08.913Z,0.73
2023-01-08T17:15:58.455Z,0.52
2023-01-08T17:18:49.191Z,0.54
2023-01-08T17:21:38.132Z,0.89
2023-01-08T17:24:26.151Z,0.41
2023-01-08T17:27:13.800Z,0.79
2023-01-08T17:30:01.512Z,0.69
2023-01-08T17:32:49.356Z,0.77
2023-01-08T17:35:37.166Z,0.75
2023-01-08T17:38:25.686Z,0.83
2023-01-08T17:41:33.560Z,0.65
2023-01-08T17:44:21.520Z,0.67
2023-01-08T17:47:09.233Z,0.69
2023-01-08T17:49:58.053Z,0.81
2023-01-08T17:52:45.657Z,0.81
2023-01-08T17:55:33.320Z,0.76
2023-01-08T17:58:21.192Z,0.82
2023-01-08T18:01:11.239Z,0.53
2023-01-08T18:03:59.105Z,0.74
2023-01-08T18:06:46.799Z,0.86
2023-01-08T18:09:36.638Z,0.80
2023-01-08T18:12:24.683Z,0.77
2023-01-08T18:15:16.469Z,0.77
2023-01-08T18:18:04.707Z,0.73
2023-01-08T18:20:55.396Z,0.82
2023-01-08T18:23:44.403Z,0.92
2023-01-08T18:26:32.074Z,0.88
2023-01-08T18:29:19.822Z,0.98
2023-01-08T18:32:07.668Z,0.89
2023-01-08T18:34:55.634Z,0.69
2023-01-08T18:37:43.222Z,0.94
2023-01-08T18:40:31.016Z,0.54
2023-01-08T18:43:18.681Z,0.86
2023-01-08T18:46:08.337Z,1.01
2023-01-08T18:48:56.314Z,0.87
2023-01-08T18:51:44.206Z,0.84
2023-01-08T18:54:33.714Z,0.47
2023-01-08T18:57:22.975Z,0.82
2023-01-08T19:00:12.730Z,0.85
2023-01-08T19:03:00.603Z,0.81
2023-01-08T19:05:48.409Z,0.59
2023-01-08T19:08:39.945Z,0.78
2023-01-08T19:11:29.532Z,0.82
2023-01-08T19:14:18.050Z,0.67
2023-01-08T19:17:06.411Z,0.91
2023-01-08T19:19:54.516Z,0.72
2023-01-08T19:22:42.661Z,0.76
2023-01-08T19:25:30.518Z,0.82
2023-01-08T19:28:18.399Z,0.87
2023-01-08T19:31:06.143Z,0.89
2023-01-08T19:33:56.261Z,0.73
2023-01-08T19:36:44.866Z,0.89
2023-01-08T19:39:36.869Z,0.92
2023-01-08T19:42:42.807Z,0.78
2023-01-08T19:45:30.561Z,1.07
2023-01-08T19:48:18.395Z,1.09
2023-01-08T19:51:07.925Z,1.07
2023-01-08T19:53:57.007Z,0.99
2023-01-08T19:56:44.742Z,0.77
2023-01-08T19:59:32.844Z,0.81
2023-01-08T20:02:21.147Z,0.85
2023-01-08T20:05:09.609Z,0.93
2023-01-08T20:07:57.367Z,0.94
2023-01-08T20:10:45.091Z,0.79
2023-01-08T20:13:36.480Z,0.80
2023-01-08T20:16:24.763Z,0.68
2023-01-08T20:19:12.513Z,0.85
2023-01-08T20:22:01.340Z,0.93
2023-01-08T20:24:50.559Z,0.95
2023-01-08T20:27:38.259Z,0.97
2023-01-08T20:30:27.539Z,0.98
2023-01-08T20:33:17.669Z,0.65
2023-01-08T20:36:13.841Z,0.84
2023-01-08T20:39:04.387Z,0.90
2023-01-08T20:42:01.183Z,0.93
2023-01-08T20:44:51.502Z,0.91
2023-01-08T20:47:42.701Z,0.98
2023-01-08T20:50:30.428Z,0.90
2023-01-08T20:53:18.027Z,0.99
2023-01-08T20:56:15.889Z,0.99
2023-01-08T20:59:03.872Z,1.01
2023-01-08T21:01:52.020Z,0.92
2023-01-08T21:04:41.819Z,1.07
2023-01-08T21:07:30.122Z,1.01
2023-01-08T21:10:18.007Z,1.01
2023-01-08T21:13:05.733Z,1.22
2023-01-08T21:15:56.452Z,0.97
2023-01-08T21:18:47.664Z,0.93
2023-01-08T21:21:40.164Z,1.02
2023-01-08T21:24:28.951Z,1.05
2023-01-08T21:27:16.704Z,0.98
2023-01-08T21:30:06.059Z,0.90
2023-01-08T21:32:53.928Z,0.98
2023-01-08T21:35:41.628Z,0.92
2023-01-08T21:38:31.592Z,1.01
2023-01-08T21:41:40.596Z,0.93
2023-01-08T21:44:47.215Z,0.87
2023-01-08T21:47:34.942Z,1.00
2023-01-08T21:50:23.796Z,0.85
2023-01-08T21:53:30.036Z,0.89
2023-01-08T21:56:17.676Z,0.85
2023-01-08T21:59:05.443Z,0.80
2023-01-08T22:01:53.078Z,0.89
2023-01-08T22:04:40.917Z,0.87
2023-01-08T22:07:28.727Z,0.70
2023-01-08T22:10:16.693Z,0.84
2023-01-08T22:13:04.374Z,0.53
2023-01-08T22:16:09.994Z,0.34
2023-01-08T22:18:57.735Z,0.55
2023-01-08T22:21:45.744Z,0.50
2023-01-08T22:24:33.412Z,0.53
2023-01-08T22:27:21.808Z,0.53
2023-01-08T22:30:12.190Z,0.61
2023-01-08T22:32:59.846Z,0.38
2023-01-08T22:35:47.479Z,0.48
2023-01-08T22:38:35.545Z,0.38
2023-01-08T22:41:24.792Z,0.17
2023-01-08T22:44:13.013Z,0.45
2023-01-08T22:47:02.944Z,0.28
2023-01-08T22:49:50.691Z,0.30
2023-01-08T22:52:38.747Z,0.36
2023-01-08T22:55:26.362Z,0.45
2023-01-08T22:58:15.610Z,0.35
2023-01-08T23:01:03.260Z,0.16
2023-01-08T23:04:00.160Z,0.47
2023-01-08T23:06:47.955Z,0.44
2023-01-08T23:09:35.653Z,0.22
2023-01-08T23:12:23.409Z,0.35
2023-01-08T23:15:11.270Z,0.41
2023-01-08T23:17:59.017Z,0.46
2023-01-08T23:20:46.704Z,0.49
2023-01-08T23:23:34.722Z,0.26
2023-01-08T23:26:28.215Z,0.31
2023-01-08T23:29:15.804Z,0.35
2023-01-08T23:32:03.667Z,0.37
2023-01-08T23:34:51.857Z,0.46
2023-01-08T23:37:39.475Z,0.32
2023-01-08T23:40:27.199Z,0.41
2023-01-08T23:43:15.056Z,0.46
2023-01-08T23:46:06.211Z,0.35
2023-01-08T23:48:55.950Z,0.45
2023-01-08T23:51:43.715Z,0.38
2023-01-08T23:54:31.423Z,0.43
2023-01-08T23:57:19.179Z,0.41
